Time;durP1;ratioP1;P1;durP2;ratioP2;P2;SDS_P1;SDS_P2;PMS_P1;PMS_P2;Temp;Humidity;BMP_temperature;BMP_pressure;BME280_temperature;BME280_humidity;BME280_pressure;Samples;Min_cycle;Max_cycle;Signal;HPM_P1;HPM_P2
2022/04/11 00:00:21;;;;;;;3.43;1.80;;;;;;;1.42;94.73;101481.00;6004211;28;20093;-70
2022/04/11 00:03:17;;;;;;;6.20;1.60;;;;;;;1.40;94.36;101472.41;6014247;28;20038;-74
2022/04/11 00:06:12;;;;;;;5.03;2.33;;;;;;;1.40;94.19;101480.25;6004188;28;20031;-72
2022/04/11 00:09:07;;;;;;;6.70;1.90;;;;;;;1.34;93.53;101475.28;6004016;28;20486;-71
2022/04/11 00:12:03;;;;;;;3.03;1.63;;;;;;;1.33;93.02;101487.53;6003408;28;20058;-72
2022/04/11 00:14:58;;;;;;;3.42;1.70;;;;;;;1.32;93.49;101469.28;6004230;28;20547;-71
2022/04/11 00:17:54;;;;;;;5.20;1.53;;;;;;;1.30;93.53;101476.34;6009004;28;20481;-73
2022/04/11 00:20:50;;;;;;;5.20;1.70;;;;;;;1.33;93.36;101473.59;6003353;28;20039;-72
2022/04/11 00:23:45;;;;;;;4.20;1.60;;;;;;;1.29;92.95;101477.25;6003654;28;20026;-71
2022/04/11 00:26:41;;;;;;;2.10;1.40;;;;;;;1.29;92.73;101469.41;6003937;28;20450;-72
2022/04/11 00:29:36;;;;;;;9.87;1.80;;;;;;;1.29;93.40;101474.66;6011785;28;20042;-73
2022/04/11 00:32:31;;;;;;;3.33;1.50;;;;;;;1.25;93.42;101468.69;6002848;28;20078;-70
2022/04/11 00:35:27;;;;;;;5.63;1.90;;;;;;;1.19;92.91;101469.00;6003788;28;20117;-71
2022/04/11 00:38:22;;;;;;;2.83;1.48;;;;;;;1.20;92.74;101465.44;6003415;28;20035;-71
2022/04/11 00:41:17;;;;;;;4.87;1.67;;;;;;;1.11;92.47;101461.47;6003013;28;20031;-72
2022/04/11 00:44:13;;;;;;;8.47;1.83;;;;;;;1.15;93.19;101468.28;6003228;28;20045;-73
2022/04/11 00:47:08;;;;;;;9.93;2.03;;;;;;;1.11;92.79;101471.91;6003199;28;20038;-72
2022/04/11 00:50:11;;;;;;;4.77;1.67;;;;;;;1.17;93.18;101466.44;6002781;28;20027;-71
2022/04/11 00:53:06;;;;;;;5.47;1.50;;;;;;;0.99;92.62;101469.88;6002521;28;20278;-72
2022/04/11 00:56:02;;;;;;;3.93;1.67;;;;;;;1.16;92.73;101469.97;6016277;28;20030;-72
2022/04/11 00:59:01;;;;;;;7.07;1.70;;;;;;;1.16;92.39;101469.97;6002881;28;20034;-73
2022/04/11 01:01:56;;;;;;;3.42;1.58;;;;;;;1.12;92.65;101468.41;6008662;28;20046;-72
2022/04/11 01:04:52;;;;;;;5.87;1.87;;;;;;;1.09;92.02;101473.75;6004237;28;20482;-73
2022/04/11 01:07:48;;;;;;;4.97;1.87;;;;;;;0.94;92.10;101469.22;6002752;28;20041;-72
2022/04/11 01:10:43;;;;;;;7.22;1.83;;;;;;;0.98;92.03;101469.94;6002406;28;20474;-71
2022/04/11 01:13:41;;;;;;;5.80;1.40;;;;;;;0.91;92.30;101458.91;6002797;28;20039;-73
2022/04/11 01:16:36;;;;;;;4.65;1.67;;;;;;;1.01;92.52;101465.41;5998782;28;20103;-70
2022/04/11 01:19:31;;;;;;;4.82;1.70;;;;;;;0.91;92.41;101471.97;6002506;28;20426;-71
2022/04/11 01:22:27;;;;;;;5.40;1.67;;;;;;;0.90;92.27;101472.88;6002002;28;20101;-71
2022/04/11 01:25:22;;;;;;;4.37;1.70;;;;;;;0.73;92.12;101479.72;6002723;28;20061;-71
2022/04/11 01:28:19;;;;;;;4.53;1.93;;;;;;;0.71;92.36;101473.75;6002644;28;20073;-72
2022/04/11 01:31:16;;;;;;;2.92;1.63;;;;;;;0.67;92.75;101473.00;6002162;28;20026;-73
2022/04/11 01:34:11;;;;;;;9.13;2.20;;;;;;;0.56;92.52;101467.38;6002311;28;20445;-72
2022/04/11 01:37:06;;;;;;;4.07;1.73;;;;;;;0.52;92.80;101468.41;6002382;28;20089;-72
2022/04/11 01:40:03;;;;;;;5.43;1.53;;;;;;;0.69;92.99;101476.41;6001887;28;20065;-73
2022/04/11 01:42:58;;;;;;;4.47;1.60;;;;;;;0.61;92.53;101470.66;5985239;28;20471;-73
2022/04/11 01:45:54;;;;;;;3.17;1.30;;;;;;;0.67;92.88;101465.19;6002570;28;20038;-73
2022/04/11 01:48:49;;;;;;;4.72;1.63;;;;;;;0.56;92.44;101467.38;6002286;28;20033;-72
2022/04/11 01:51:44;;;;;;;4.67;1.60;;;;;;;0.63;92.49;101463.59;6001561;28;20039;-71
2022/04/11 01:54:39;;;;;;;5.17;1.87;;;;;;;0.67;92.04;101467.78;6003082;28;20035;-71
2022/04/11 01:57:35;;;;;;;5.40;2.00;;;;;;;0.68;92.59;101460.81;6002142;28;20266;-71
2022/04/11 02:00:31;;;;;;;8.10;2.13;;;;;;;0.75;92.72;101457.88;6001514;28;20042;-70
2022/04/11 02:03:26;;;;;;;9.38;2.00;;;;;;;0.74;92.47;101450.94;6012196;28;20075;-69
2022/04/11 02:06:21;;;;;;;7.53;1.90;;;;;;;0.70;92.56;101454.63;6005573;28;20058;-70
2022/04/11 02:09:17;;;;;;;3.13;1.57;;;;;;;0.73;92.06;101458.84;6006924;28;20037;-70
2022/04/11 02:12:12;;;;;;;9.23;2.40;;;;;;;0.63;92.09;101453.16;6006104;28;20039;-70
2022/04/11 02:15:08;;;;;;;4.07;1.67;;;;;;;0.67;91.92;101454.75;6006734;28;20043;-70
2022/04/11 02:18:04;;;;;;;7.47;2.10;;;;;;;0.63;91.95;101447.94;6006364;28;20043;-69
2022/04/11 02:20:59;;;;;;;4.82;2.47;;;;;;;0.51;92.28;101448.47;6005921;28;20457;-69
2022/04/11 02:23:54;;;;;;;8.23;2.10;;;;;;;0.58;91.84;101442.06;6006664;28;20033;-70
2022/04/11 02:26:50;;;;;;;5.50;2.00;;;;;;;0.51;91.48;101458.91;6006379;28;20064;-70
2022/04/11 02:29:45;;;;;;;7.37;1.80;;;;;;;0.54;92.35;101450.97;6006213;28;20344;-70
2022/04/11 02:32:41;;;;;;;5.23;1.77;;;;;;;0.54;91.57;101443.13;6005791;28;20030;-70
2022/04/11 02:35:36;;;;;;;5.57;1.77;;;;;;;0.67;91.70;101446.91;6006450;28;20069;-70
2022/04/11 02:38:33;;;;;;;4.63;1.87;;;;;;;0.66;91.79;101442.59;6006348;28;20125;-70
2022/04/11 02:41:28;;;;;;;4.65;1.92;;;;;;;0.70;92.08;101446.78;6005280;28;20157;-69
2022/04/11 02:44:24;;;;;;;5.30;1.73;;;;;;;0.80;91.49;101440.25;6006148;28;20402;-70
2022/04/11 02:47:20;;;;;;;4.68;1.60;;;;;;;0.94;91.50;101440.50;6005824;28;20636;-70
2022/04/11 02:50:15;;;;;;;5.75;1.48;;;;;;;0.83;90.47;101432.28;6005572;28;20034;-70
2022/04/11 02:53:10;;;;;;;7.27;1.50;;;;;;;0.79;90.91;101425.50;6006032;28;20046;-70
2022/04/11 02:56:06;;;;;;;4.57;2.00;;;;;;;0.88;91.33;101425.09;6018870;28;20030;-70
2022/04/11 02:59:01;;;;;;;3.87;1.77;;;;;;;0.90;90.58;101425.03;6005901;28;20336;-70
2022/04/11 03:01:56;;;;;;;4.80;1.70;;;;;;;0.92;90.77;101428.44;6014025;28;20474;-70
2022/04/11 03:04:52;;;;;;;5.93;1.60;;;;;;;1.01;90.16;101423.63;6005938;28;20038;-70
2022/04/11 03:07:47;;;;;;;3.57;1.77;;;;;;;1.05;90.00;101409.53;6005674;28;20026;-70
2022/04/11 03:10:42;;;;;;;4.43;1.10;;;;;;;1.16;90.28;101415.13;6004651;28;20281;-70
2022/04/11 03:13:38;;;;;;;9.43;1.80;;;;;;;1.20;89.83;101401.00;6005471;28;20034;-71
2022/04/11 03:16:34;;;;;;;4.13;1.80;;;;;;;1.29;89.58;101398.88;6004706;28;20483;-70
2022/04/11 03:19:29;;;;;;;5.38;1.75;;;;;;;1.37;89.78;101415.91;6011823;28;20035;-70
2022/04/11 03:22:24;;;;;;;3.50;1.40;;;;;;;1.41;89.47;101411.41;6004653;28;20038;-70
2022/04/11 03:25:20;;;;;;;7.27;1.63;;;;;;;1.44;88.87;101408.66;6005081;28;20034;-70
2022/04/11 03:28:15;;;;;;;5.30;1.60;;;;;;;1.41;89.25;101403.56;6005288;28;19920;-70
2022/04/11 03:31:11;;;;;;;2.33;1.27;;;;;;;1.49;88.84;101414.50;6004469;28;20047;-70
2022/04/11 03:34:06;;;;;;;7.05;2.10;;;;;;;1.46;88.53;101417.25;6005423;28;20030;-70
2022/04/11 03:37:02;;;;;;;4.70;2.17;;;;;;;1.47;88.65;101405.91;6005244;28;20045;-69
2022/04/11 03:39:57;;;;;;;8.73;2.38;;;;;;;1.48;88.58;101407.56;6004751;28;20440;-70
2022/04/11 03:42:52;;;;;;;6.80;2.10;;;;;;;1.47;88.95;101404.09;6003984;28;20030;-70
2022/04/11 03:45:48;;;;;;;5.30;1.70;;;;;;;1.45;88.47;101398.13;6004640;28;20027;-71
2022/04/11 03:48:43;;;;;;;5.00;2.00;;;;;;;1.58;88.62;101408.81;6004849;28;20278;-71
2022/04/11 03:51:38;;;;;;;4.93;1.33;;;;;;;1.58;87.81;101404.47;6003880;28;20038;-71
2022/04/11 03:54:34;;;;;;;4.25;1.30;;;;;;;1.63;88.74;101406.88;6009391;28;20057;-70
2022/04/11 03:57:29;;;;;;;8.27;1.70;;;;;;;1.59;88.30;101415.75;6012627;28;20053;-70
2022/04/11 04:00:24;;;;;;;4.90;1.23;;;;;;;1.61;87.93;101406.06;6003969;28;20378;-70
2022/04/11 04:03:20;;;;;;;3.33;1.65;;;;;;;1.63;87.61;101412.94;6014442;28;20034;-71
2022/04/11 04:06:15;;;;;;;3.85;1.55;;;;;;;1.61;87.52;101408.69;6004288;28;20027;-71
2022/04/11 04:09:10;;;;;;;7.50;1.77;;;;;;;1.63;87.31;101412.94;6003818;28;20083;-71
2022/04/11 04:12:06;;;;;;;3.73;1.60;;;;;;;1.69;87.02;101411.78;6003683;28;20035;-70
2022/04/11 04:15:02;;;;;;;4.38;1.33;;;;;;;1.72;87.19;101415.13;6003985;28;20270;-70
2022/04/11 04:17:58;;;;;;;4.53;1.25;;;;;;;1.75;87.48;101414.13;6004116;28;20037;-71
2022/04/11 04:20:54;;;;;;;5.85;1.48;;;;;;;1.76;86.80;101418.44;6003327;28;20470;-70
2022/04/11 04:23:49;;;;;;;5.87;1.40;;;;;;;1.73;87.31;101418.59;6003504;28;20040;-71
2022/04/11 04:26:44;;;;;;;3.23;1.17;;;;;;;1.78;87.66;101416.59;6003955;28;20039;-72
2022/04/11 04:29:39;;;;;;;2.23;1.20;;;;;;;1.88;86.97;101417.84;6002782;28;20039;-71
2022/04/11 04:32:35;;;;;;;3.97;1.33;;;;;;;1.96;86.48;101426.16;6003271;28;20124;-71
2022/04/11 04:35:30;;;;;;;3.90;1.67;;;;;;;1.97;86.31;101419.16;6003701;28;20105;-72
2022/04/11 04:38:25;;;;;;;7.23;1.83;;;;;;;2.06;85.92;101416.13;6003507;28;20530;-72
2022/04/11 04:41:21;;;;;;;6.93;2.17;;;;;;;2.08;85.30;101417.72;6002390;28;20398;-72
2022/04/11 04:44:16;;;;;;;2.80;1.07;;;;;;;2.06;85.94;101419.59;6003367;28;20039;-71
2022/04/11 04:47:11;;;;;;;5.63;1.40;;;;;;;2.03;85.25;101424.09;6003371;28;20018;-72
2022/04/11 04:50:09;;;;;;;3.83;1.40;;;;;;;2.03;85.34;101422.34;6002553;28;20038;-72
2022/04/11 04:53:04;;;;;;;7.28;1.40;;;;;;;2.10;85.77;101428.97;6003532;28;20031;-73
2022/04/11 04:56:00;;;;;;;3.60;1.47;;;;;;;2.11;86.06;101424.59;6006241;28;20058;-72
2022/04/11 04:58:55;;;;;;;2.37;1.23;;;;;;;2.21;85.31;101426.66;6002495;28;20035;-72
2022/04/11 05:01:50;;;;;;;3.73;1.63;;;;;;;2.27;85.03;101431.59;6010907;28;20409;-72
2022/04/11 05:04:46;;;;;;;5.85;1.60;;;;;;;2.30;84.84;101426.22;6005050;28;20062;-71
2022/04/11 05:07:41;;;;;;;3.17;1.57;;;;;;;2.38;83.55;101426.69;6002870;28;20053;-71
2022/04/11 05:10:36;;;;;;;5.32;1.75;;;;;;;2.39;83.77;101420.50;6002350;28;20422;-71
2022/04/11 05:13:31;;;;;;;4.03;1.43;;;;;;;2.48;82.82;101428.81;6002488;28;20039;-71
2022/04/11 05:16:27;;;;;;;3.00;1.20;;;;;;;2.49;83.25;101422.69;6002945;28;20027;-73
2022/04/11 05:19:22;;;;;;;6.43;1.40;;;;;;;2.55;83.61;101430.22;6002875;28;20070;-72
2022/04/11 05:22:17;;;;;;;3.90;1.40;;;;;;;2.57;83.65;101426.59;6002363;28;20419;-74
2022/04/11 05:25:13;;;;;;;4.67;1.50;;;;;;;2.69;82.45;101414.66;6002870;28;20470;-70
2022/04/11 05:28:09;;;;;;;5.40;1.55;;;;;;;2.73;82.22;101405.72;6002535;28;20117;-73
2022/04/11 05:31:04;;;;;;;4.10;1.67;;;;;;;2.75;81.66;101416.94;6001861;28;20062;-72
2022/04/11 05:34:01;;;;;;;4.93;1.47;;;;;;;2.79;82.14;101418.50;6002458;28;20446;-73
2022/04/11 05:36:56;;;;;;;3.92;1.55;;;;;;;2.97;80.45;101422.78;6002756;28;20398;-74
2022/04/11 05:39:52;;;;;;;3.43;1.57;;;;;;;2.93;80.32;101416.03;6004995;28;20039;-74
2022/04/11 05:42:47;;;;;;;4.03;1.43;;;;;;;2.93;80.69;101416.03;6009601;28;20030;-75
2022/04/11 05:45:42;;;;;;;3.70;1.50;;;;;;;3.11;79.82;101415.03;6010203;28;20038;-73
2022/04/11 05:48:40;;;;;;;2.85;1.10;;;;;;;3.27;78.73;101420.31;6009807;28;20073;-71
2022/04/11 05:51:35;;;;;;;3.50;1.20;;;;;;;3.52;78.54;101420.69;6009724;28;20399;-72
2022/04/11 05:54:31;;;;;;;3.10;1.27;;;;;;;3.75;77.05;101422.03;6014802;28;20041;-73
2022/04/11 05:57:26;;;;;;;5.50;1.63;;;;;;;3.74;77.24;101425.59;6000955;28;20027;-74
2022/04/11 06:00:21;;;;;;;7.37;1.73;;;;;;;3.74;77.12;101417.72;6009528;28;20117;-74
2022/04/11 06:03:16;;;;;;;2.87;1.47;;;;;;;3.84;76.73;101419.72;6019510;28;20109;-72
2022/04/11 06:06:12;;;;;;;2.07;1.03;;;;;;;3.86;76.78;101419.66;6010135;28;20057;-73
2022/04/11 06:09:07;;;;;;;2.20;1.20;;;;;;;3.88;76.51;101415.16;6010172;28;20536;-71
2022/04/11 06:12:03;;;;;;;7.83;1.30;;;;;;;4.25;74.93;101414.75;6009162;28;20277;-72
2022/04/11 06:14:59;;;;;;;4.00;1.30;;;;;;;4.47;74.56;101423.09;6010175;28;20320;-73
2022/04/11 06:17:54;;;;;;;6.60;1.50;;;;;;;4.55;73.02;101414.75;6009993;28;20055;-74
2022/04/11 06:20:50;;;;;;;5.27;1.40;;;;;;;4.91;73.47;101416.97;6010100;28;20035;-74
2022/04/11 06:23:46;;;;;;;4.25;1.30;;;;;;;4.94;71.92;101422.88;6009955;28;20039;-73
2022/04/11 06:26:41;;;;;;;4.83;1.20;;;;;;;4.97;71.71;101416.59;6009546;28;20042;-70
2022/04/11 06:29:36;;;;;;;3.33;1.00;;;;;;;4.91;71.11;101415.19;6009982;28;20046;-72
2022/04/11 06:32:33;;;;;;;3.90;1.50;;;;;;;5.11;72.91;101416.63;6008889;28;20034;-73
2022/04/11 06:35:28;;;;;;;4.30;1.33;;;;;;;5.22;71.45;101416.78;6009704;28;20158;-74
2022/04/11 06:38:23;;;;;;;4.83;1.40;;;;;;;5.93;69.05;101422.78;6009590;28;20095;-72
2022/04/11 06:41:19;;;;;;;3.97;1.20;;;;;;;6.02;67.01;101414.31;6009226;28;20478;-73
2022/04/11 06:44:14;;;;;;;5.40;1.30;;;;;;;6.03;68.54;101415.16;6009754;28;20042;-72
2022/04/11 06:47:09;;;;;;;2.00;1.00;;;;;;;6.19;67.17;101421.09;6009421;28;20038;-71
2022/04/11 06:50:05;;;;;;;2.58;0.88;;;;;;;6.16;65.12;101421.31;6009125;28;20035;-70
2022/04/11 06:53:00;;;;;;;2.97;1.08;;;;;;;6.04;66.60;101417.66;6014750;28;20085;-72
2022/04/11 06:55:55;;;;;;;3.27;1.20;;;;;;;6.34;65.22;101426.19;6019137;28;20038;-72
2022/04/11 06:58:51;;;;;;;4.13;1.30;;;;;;;6.47;64.72;101431.47;6005960;28;20039;-72
2022/04/11 07:01:46;;;;;;;4.75;1.40;;;;;;;6.57;64.30;101432.59;6012709;28;20600;-71
2022/04/11 07:04:42;;;;;;;3.03;1.10;;;;;;;6.86;63.02;101427.97;6008330;28;20031;-71
2022/04/11 07:07:39;;;;;;;4.70;1.30;;;;;;;7.12;61.63;101422.56;6005234;28;20475;-71
2022/04/11 07:10:37;;;;;;;2.10;1.17;;;;;;;7.35;62.60;101426.25;6004739;28;20089;-73
2022/04/11 07:13:32;;;;;;;3.33;1.10;;;;;;;7.49;62.56;101422.66;6005619;28;20039;-73
2022/04/11 07:16:28;;;;;;;2.50;1.23;;;;;;;7.59;61.82;101418.38;6005326;28;20031;-70
2022/04/11 07:19:23;;;;;;;2.50;1.20;;;;;;;7.50;61.26;101424.34;6005464;28;20034;-72
2022/04/11 07:22:21;;;;;;;3.00;1.30;;;;;;;7.58;61.44;101419.38;6004590;28;20030;-72
2022/04/11 07:25:18;;;;;;;2.38;1.30;;;;;;;7.46;61.85;101418.44;6004780;28;20082;-73
2022/04/11 07:28:13;;;;;;;5.53;1.50;;;;;;;7.60;61.69;101412.16;6005301;28;20089;-71
2022/04/11 07:31:09;;;;;;;2.30;1.13;;;;;;;7.55;61.40;101412.50;6004362;28;20426;-72
2022/04/11 07:34:04;;;;;;;3.50;1.15;;;;;;;7.61;61.51;101419.16;6005146;28;20062;-70
2022/04/11 07:36:59;;;;;;;4.43;1.33;;;;;;;7.67;62.82;101411.63;6004814;28;20069;-72
2022/04/11 07:39:54;;;;;;;4.47;1.45;;;;;;;7.85;61.07;101403.31;6004994;28;20078;-72
2022/04/11 07:42:51;;;;;;;3.13;1.40;;;;;;;7.73;60.74;101420.88;6003972;28;20398;-74
2022/04/11 07:45:48;;;;;;;4.30;1.55;;;;;;;7.74;59.88;101419.94;6004533;28;20098;-72
2022/04/11 07:48:43;;;;;;;3.00;1.35;;;;;;;7.79;59.96;101421.31;6004887;28;20038;-72
2022/04/11 07:51:39;;;;;;;3.80;1.33;;;;;;;8.00;58.81;101416.25;6003917;28;20096;-71
2022/04/11 07:54:34;;;;;;;3.37;1.40;;;;;;;8.25;59.36;101420.56;6009618;28;20030;-70
2022/04/11 07:57:29;;;;;;;4.00;1.30;;;;;;;8.35;59.24;101418.94;6008352;28;20390;-71
2022/04/11 08:00:25;;;;;;;2.47;1.40;;;;;;;8.55;59.71;101422.75;6003723;28;20049;-72
2022/04/11 08:03:20;;;;;;;6.13;1.63;;;;;;;8.46;58.68;101415.50;6013854;28;20030;-73
2022/04/11 08:06:16;;;;;;;5.53;2.03;;;;;;;8.64;57.51;101414.94;6004163;28;20042;-70
2022/04/11 08:09:12;;;;;;;3.58;1.42;;;;;;;8.99;57.23;101423.69;6004120;28;20045;-71
2022/04/11 08:12:08;;;;;;;2.70;1.50;;;;;;;9.15;57.22;101415.41;6003592;28;20467;-71
2022/04/11 08:15:03;;;;;;;5.03;1.60;;;;;;;9.24;57.16;101414.66;6003958;28;20038;-71
2022/04/11 08:17:59;;;;;;;5.95;1.60;;;;;;;9.21;57.65;101425.53;6004110;28;20045;-72
2022/04/11 08:20:54;;;;;;;4.55;2.13;;;;;;;9.24;57.18;101424.44;6003050;28;20046;-70
2022/04/11 08:23:50;;;;;;;6.90;1.83;;;;;;;9.26;55.21;101418.06;6003876;28;20042;-71
2022/04/11 08:26:45;;;;;;;3.20;1.73;;;;;;;9.22;56.52;101421.91;6003821;28;20489;-73
2022/04/11 08:29:40;;;;;;;4.38;1.33;;;;;;;9.38;55.45;101432.97;6003931;28;20026;-72
2022/04/11 08:32:37;;;;;;;5.17;2.00;;;;;;;9.69;55.19;101426.09;6003278;28;20035;-72
2022/04/11 08:35:33;;;;;;;4.35;1.90;;;;;;;9.51;54.91;101415.16;6003533;28;20038;-73
2022/04/11 08:38:28;;;;;;;6.03;1.60;;;;;;;9.39;55.15;101433.81;6003723;28;20035;-72
2022/04/11 08:41:26;;;;;;;4.10;1.40;;;;;;;9.76;53.34;101426.41;6002554;28;20053;-70
2022/04/11 08:44:22;;;;;;;3.17;1.52;;;;;;;10.15;53.57;101423.22;6003146;28;20070;-70
2022/04/11 08:47:17;;;;;;;4.22;1.60;;;;;;;10.47;50.30;101423.22;5986325;28;20041;-72
2022/04/11 08:50:13;;;;;;;5.00;1.87;;;;;;;10.10;53.35;101430.69;6002394;28;20039;-71
2022/04/11 08:53:08;;;;;;;5.35;1.80;;;;;;;10.11;52.34;101422.59;6003448;28;20324;-71
2022/04/11 08:56:04;;;;;;;4.05;1.70;;;;;;;10.45;51.16;101428.66;6015830;28;20031;-72
2022/04/11 08:58:59;;;;;;;3.30;1.38;;;;;;;10.37;50.29;101433.75;6002971;28;20117;-73
2022/04/11 09:01:55;;;;;;;3.67;1.33;;;;;;;10.28;51.81;101437.16;6011542;28;20053;-72
2022/04/11 09:04:55;;;;;;;5.33;1.57;;;;;;;10.01;50.94;101431.44;6003887;28;20041;-72
2022/04/11 09:07:55;;;;;;;4.70;1.85;;;;;;;10.10;51.29;101441.28;6003166;28;20486;-73
2022/04/11 09:10:50;;;;;;;2.38;1.50;;;;;;;10.36;50.15;101440.00;6002218;28;20038;-72
2022/04/11 09:13:55;;;;;;;2.63;1.13;;;;;;;10.53;49.76;101433.31;6002707;28;20109;-74
2022/04/11 09:16:52;;;;;;;3.85;1.92;;;;;;;10.48;49.12;101433.72;6002796;28;20497;-72
2022/04/11 09:19:47;;;;;;;3.17;1.25;;;;;;;10.46;50.23;101426.84;6002954;28;20175;-69
2022/04/11 09:22:43;;;;;;;5.63;1.57;;;;;;;10.56;50.10;101427.75;6002139;28;20034;-73
2022/04/11 09:25:38;;;;;;;7.43;1.63;;;;;;;10.34;48.93;101418.09;6002532;28;20085;-70
2022/04/11 09:28:35;;;;;;;4.60;1.60;;;;;;;10.30;48.71;101421.97;6002495;28;20030;-71
2022/04/11 09:31:32;;;;;;;3.92;1.45;;;;;;;10.29;50.13;101422.94;6001878;28;20321;-71
2022/04/11 09:34:27;;;;;;;4.05;1.40;;;;;;;10.44;48.35;101419.00;6002872;28;20038;-72
2022/04/11 09:37:22;;;;;;;3.87;1.60;;;;;;;10.58;46.98;101408.09;6002617;28;20055;-70
2022/04/11 09:40:21;;;;;;;3.87;1.77;;;;;;;10.45;48.44;101419.84;6001711;28;20453;-70
2022/04/11 09:43:24;;;;;;;2.67;1.65;;;;;;;10.66;47.74;101407.44;6002669;28;20031;-72
2022/04/11 09:46:19;;;;;;;3.45;1.42;;;;;;;10.67;47.38;101414.44;6002166;28;20034;-70
2022/04/11 09:49:14;;;;;;;3.83;1.77;;;;;;;10.83;46.85;101403.34;6002678;28;20038;-72
2022/04/11 09:52:14;;;;;;;3.00;1.50;;;;;;;11.13;46.64;101408.69;6001911;28;20038;-72
2022/04/11 09:55:10;;;;;;;4.63;1.98;;;;;;;11.52;44.67;101402.59;6012179;28;20441;-71
2022/04/11 09:58:06;;;;;;;3.95;1.50;;;;;;;11.37;46.42;101403.91;6005576;28;20030;-73
2022/04/11 10:01:03;;;;;;;3.20;1.45;;;;;;;11.40;45.60;101411.59;6003027;28;20071;-75
2022/04/11 10:03:58;;;;;;;4.18;1.75;;;;;;;11.82;43.52;101397.22;6010080;28;20078;-70
2022/04/11 10:06:54;;;;;;;3.50;1.60;;;;;;;11.94;43.59;101398.78;5984918;28;20466;-70
2022/04/11 10:09:50;;;;;;;3.80;1.98;;;;;;;11.97;45.09;101391.50;6002437;28;20266;-70
2022/04/11 10:12:46;;;;;;;5.28;1.77;;;;;;;12.12;44.01;101384.81;6001641;28;20034;-72
2022/04/11 10:15:43;;;;;;;6.88;2.58;;;;;;;12.34;41.77;101387.16;6002024;28;20041;-71
2022/04/11 10:18:39;;;;;;;8.23;1.92;;;;;;;12.38;41.08;101380.59;6002097;28;20042;-70
2022/04/11 10:21:39;;;;;;;6.53;1.80;;;;;;;12.37;40.81;101374.44;6001232;28;20042;-71
2022/04/11 10:24:39;;;;;;;5.88;1.90;;;;;;;12.63;42.45;101374.69;6002310;28;20043;-73
2022/04/11 10:27:36;;;;;;;4.35;2.10;;;;;;;12.73;40.35;101370.19;5986895;28;20022;-71
2022/04/11 10:30:31;;;;;;;5.25;2.33;;;;;;;12.71;40.01;101366.81;6005650;28;20474;-71
2022/04/11 10:33:44;;;;;;;4.63;2.33;;;;;;;12.43;40.71;101363.22;6006338;28;20062;-72
2022/04/11 10:36:39;;;;;;;6.20;2.42;;;;;;;12.62;40.81;101370.34;6006228;28;20023;-72
2022/04/11 10:39:35;;;;;;;5.23;2.53;;;;;;;12.48;41.04;101360.97;6006130;28;20045;-72
2022/04/11 10:42:30;;;;;;;7.57;2.43;;;;;;;12.94;41.47;101362.81;6005597;28;20058;-71
2022/04/11 10:45:40;;;;;;;7.13;2.90;;;;;;;12.80;38.54;101363.28;6006562;28;20027;-71
2022/04/11 10:48:54;;;;;;;7.03;3.05;;;;;;;12.62;39.38;101362.34;6006155;28;20418;-71
2022/04/11 10:52:28;;;;;;;6.60;3.20;;;;;;;12.70;39.80;101357.16;6005229;28;20049;-72
2022/04/11 10:55:25;;;;;;;6.63;2.58;;;;;;;13.22;39.31;101347.75;6017606;28;20141;-71
2022/04/11 10:58:40;;;;;;;8.00;3.08;;;;;;;12.61;38.69;101344.69;6014263;28;20104;-72
2022/04/11 11:01:44;;;;;;;8.60;3.47;;;;;;;13.17;36.29;101343.84;6011045;28;20080;-72
2022/04/11 11:04:42;;;;;;;9.32;3.25;;;;;;;13.26;36.31;101345.66;6008414;28;20078;-72
2022/04/11 11:07:37;;;;;;;8.50;3.17;;;;;;;13.30;37.25;101347.00;6004971;28;20043;-71
2022/04/11 11:10:58;;;;;;;5.40;3.00;;;;;;;13.35;38.72;101350.91;6004747;28;20069;-73
2022/04/11 11:13:56;;;;;;;6.03;2.90;;;;;;;13.13;36.40;101334.50;6005514;28;20050;-70
2022/04/11 11:16:56;;;;;;;9.05;3.05;;;;;;;13.34;35.97;101348.41;6005607;28;20027;-70
2022/04/11 11:20:03;;;;;;;5.80;3.15;;;;;;;12.74;39.76;101344.41;6005343;28;20038;-72
2022/04/11 11:23:16;;;;;;;7.75;2.97;;;;;;;13.20;39.82;101340.91;6005364;28;20103;-70
2022/04/11 11:26:13;;;;;;;7.28;3.30;;;;;;;13.27;38.22;101331.31;6005088;28;20031;-72
2022/04/11 11:29:16;;;;;;;6.93;2.95;;;;;;;13.10;38.53;101331.13;6005357;28;20045;-71
2022/04/11 11:32:12;;;;;;;6.45;3.08;;;;;;;13.06;39.52;101324.41;6004426;28;20035;-71
2022/04/11 11:35:11;;;;;;;11.63;3.05;;;;;;;13.11;39.06;101322.16;6005011;28;20042;-73
2022/04/11 11:38:06;;;;;;;6.75;2.67;;;;;;;13.20;41.07;101319.59;6004515;28;20475;-72
2022/04/11 11:41:05;;;;;;;7.77;2.77;;;;;;;13.30;38.99;101315.03;6003839;28;20073;-71
2022/04/11 11:44:00;;;;;;;6.47;2.40;;;;;;;13.63;37.27;101315.28;6005156;28;20839;-70
2022/04/11 11:47:00;;;;;;;9.23;2.50;;;;;;;13.61;37.75;101305.75;5987457;28;20035;-72
2022/04/11 11:50:06;;;;;;;6.85;2.58;;;;;;;13.69;38.61;101296.00;6004870;28;20118;-73
2022/04/11 11:53:06;;;;;;;5.65;2.20;;;;;;;13.94;38.23;101304.25;6004622;28;20042;-72
2022/04/11 11:56:04;;;;;;;5.50;2.78;;;;;;;13.69;39.64;101301.34;6011007;28;20541;-71
2022/04/11 11:59:00;;;;;;;9.40;3.67;;;;;;;13.45;38.57;101292.25;6004566;28;20039;-70
2022/04/11 12:05:30;;;;;;;6.90;3.15;;;;;;;13.63;38.58;101285.09;6004585;28;20394;-69
2022/04/11 12:08:30;;;;;;;5.38;2.80;;;;;;;13.43;39.96;101287.06;6004183;28;20034;-72
2022/04/11 12:11:26;;;;;;;5.40;2.90;;;;;;;13.63;38.13;101277.13;6003325;28;20035;-71
2022/04/11 12:14:21;;;;;;;8.63;3.00;;;;;;;13.93;39.53;101282.06;6004009;28;20066;-72
2022/04/11 12:17:16;;;;;;;5.10;2.80;;;;;;;13.91;39.98;101261.88;6004116;28;20397;-71
2022/04/11 12:20:19;;;;;;;4.73;2.93;;;;;;;13.95;38.71;101266.75;6008276;28;20257;-72
2022/04/11 12:23:16;;;;;;;6.20;2.78;;;;;;;13.74;38.06;101266.22;6004214;28;20035;-72
2022/04/11 12:26:11;;;;;;;5.40;2.60;;;;;;;13.72;38.50;101258.38;6003909;28;20038;-73
2022/04/11 12:29:14;;;;;;;6.60;3.13;;;;;;;13.86;38.30;101256.97;6003365;28;20089;-72
2022/04/11 12:32:14;;;;;;;8.50;3.50;;;;;;;14.17;36.57;101257.41;6003189;28;20035;-71
2022/04/11 12:35:19;;;;;;;7.18;3.03;;;;;;;14.19;37.06;101250.91;6003524;28;20038;-70
2022/04/11 12:38:14;;;;;;;5.32;3.22;;;;;;;14.10;37.35;101251.03;6003764;28;20507;-72
2022/04/11 12:41:36;;;;;;;6.37;3.60;;;;;;;13.88;37.26;101249.69;6002606;28;20034;-72
2022/04/11 12:44:35;;;;;;;5.38;2.97;;;;;;;13.86;36.75;101248.19;6003397;28;20469;-71
2022/04/11 12:47:31;;;;;;;7.40;3.25;;;;;;;13.95;36.18;101237.41;6003339;28;20034;-70
2022/04/11 12:50:26;;;;;;;9.03;2.90;;;;;;;14.02;37.52;101242.97;6002199;28;20113;-72
2022/04/11 12:53:31;;;;;;;5.03;2.63;;;;;;;14.34;36.50;101237.88;6003337;28;20346;-72
2022/04/11 12:56:38;;;;;;;5.25;3.03;;;;;;;14.17;38.63;101231.56;6016202;28;20027;-72
2022/04/11 12:59:35;;;;;;;5.07;2.60;;;;;;;14.19;34.60;101236.75;6003429;28;20034;-73
2022/04/11 13:02:30;;;;;;;6.47;2.65;;;;;;;14.38;34.69;101227.75;5994255;28;20039;-72
2022/04/11 13:05:26;;;;;;;4.97;3.40;;;;;;;14.26;34.51;101230.66;6003202;28;20418;-72
2022/04/11 13:08:24;;;;;;;6.90;3.00;;;;;;;14.22;35.25;101223.94;6002903;28;20027;-72
2022/04/11 13:11:19;;;;;;;6.07;2.38;;;;;;;14.29;35.45;101230.31;6002492;28;20038;-71
2022/04/11 13:14:15;;;;;;;5.60;3.03;;;;;;;13.68;35.25;101229.50;6003029;28;20497;-70
2022/04/11 13:20:27;;;;;;;5.35;2.85;;;;;;;14.32;38.25;101205.19;6008608;28;20270;-75
2022/04/11 13:23:22;;;;;;;7.15;2.78;;;;;;;14.94;38.35;101211.97;6002643;28;20062;-71
2022/04/11 13:26:17;;;;;;;4.93;2.50;;;;;;;14.59;33.82;101204.16;6002866;28;20039;-74
2022/04/11 13:29:13;;;;;;;6.63;2.33;;;;;;;14.79;33.83;101205.56;6002579;28;20033;-72
2022/04/11 13:32:08;;;;;;;6.68;2.45;;;;;;;14.94;35.21;101201.31;6002228;28;20545;-73
2022/04/11 13:35:04;;;;;;;5.78;2.63;;;;;;;14.83;33.71;101206.94;6002358;28;20097;-72
2022/04/11 13:37:59;;;;;;;5.28;2.35;;;;;;;14.76;33.17;101200.53;6002538;28;20046;-73
2022/04/11 13:40:55;;;;;;;5.17;2.53;;;;;;;14.92;32.90;101197.94;6002055;28;20401;-72
2022/04/11 13:43:51;;;;;;;5.67;2.50;;;;;;;14.66;33.77;101197.19;6002216;28;20035;-71
2022/04/11 13:46:47;;;;;;;6.82;2.65;;;;;;;14.47;35.19;101200.09;6002563;28;20110;-70
2022/04/11 13:49:43;;;;;;;9.35;2.85;;;;;;;14.79;35.93;101185.03;6002250;28;20038;-71
2022/04/11 13:52:38;;;;;;;5.55;3.00;;;;;;;14.70;34.01;101190.53;6001592;28;20042;-71